Time;durP1;ratioP1;P1;durP2;ratioP2;P2;SDS_P1;SDS_P2;PMS_P1;PMS_P2;Temp;Humidity;BMP_temperature;BMP_pressure;BME280_temperature;BME280_humidity;BME280_pressure;Samples;Min_cycle;Max_cycle;Signal;HPM_P1;HPM_P2
2021/04/09 00:00:41;;;;;;;13.77;6.37;;;2.10;99.90;;;;;;4948378;28;20533;-70
2021/04/09 00:03:08;;;;;;;12.57;6.10;;;2.10;99.90;;;;;;4946843;28;20635;-70
2021/04/09 00:05:35;;;;;;;15.23;6.87;;;2.10;99.90;;;;;;4947063;28;20053;-70
2021/04/09 00:08:01;;;;;;;13.23;6.27;;;2.00;99.90;;;;;;4940837;28;20100;-70
2021/04/09 00:10:30;;;;;;;14.00;6.40;;;2.00;99.90;;;;;;4949423;28;20042;-70
2021/04/09 00:12:57;;;;;;;17.37;6.50;;;2.00;99.90;;;;;;4951253;28;20054;-70
2021/04/09 00:15:24;;;;;;;12.30;5.53;;;2.00;99.90;;;;;;4952394;28;20129;-70
2021/04/09 00:17:52;;;;;;;11.60;6.50;;;1.90;99.90;;;;;;4946673;28;20058;-70
2021/04/09 00:20:20;;;;;;;12.17;6.20;;;2.00;99.90;;;;;;4948363;28;20074;-70
2021/04/09 00:22:47;;;;;;;12.77;6.37;;;1.90;99.90;;;;;;4948069;28;20652;-70
2021/04/09 00:25:16;;;;;;;18.23;6.07;;;1.90;99.90;;;;;;4946682;28;20210;-70
2021/04/09 00:27:44;;;;;;;15.30;6.97;;;1.90;99.90;;;;;;4945906;28;20046;-70
2021/04/09 00:30:20;;;;;;;14.43;6.10;;;1.90;99.90;;;;;;4946774;28;20074;-70
2021/04/09 00:32:47;;;;;;;11.93;5.90;;;1.90;99.90;;;;;;4947401;28;20252;-70
2021/04/09 00:35:14;;;;;;;13.73;6.50;;;1.80;99.90;;;;;;4946692;28;20053;-70
2021/04/09 00:37:41;;;;;;;14.10;6.63;;;1.80;99.90;;;;;;4945670;28;20076;-70
2021/04/09 00:40:08;;;;;;;12.63;6.20;;;1.70;99.90;;;;;;4947834;28;20050;-70
2021/04/09 00:42:38;;;;;;;15.53;6.50;;;1.80;99.90;;;;;;4945974;28;20125;-70
2021/04/09 00:45:08;;;;;;;13.97;6.43;;;1.70;99.90;;;;;;4946235;28;20054;-70
2021/04/09 00:47:34;;;;;;;18.33;6.73;;;1.70;99.90;;;;;;4944526;28;20054;-70
2021/04/09 00:50:01;;;;;;;16.97;7.43;;;1.60;99.90;;;;;;4947143;28;20061;-70
2021/04/09 00:52:31;;;;;;;15.23;7.47;;;1.60;99.90;;;;;;4946985;28;20054;-70
2021/04/09 00:54:59;;;;;;;18.03;6.97;;;1.50;99.90;;;;;;4945706;28;20061;-70
2021/04/09 00:57:26;;;;;;;15.10;6.80;;;1.40;99.90;;;;;;4949276;28;20051;-71
2021/04/09 00:59:53;;;;;;;14.57;7.17;;;1.30;99.90;;;;;;4950137;28;20427;-70
2021/04/09 01:02:20;;;;;;;18.70;7.77;;;1.20;99.90;;;;;;4949882;28;20054;-70
2021/04/09 01:04:47;;;;;;;17.87;7.57;;;1.30;99.90;;;;;;4941180;28;20151;-70
2021/04/09 01:07:14;;;;;;;13.77;7.10;;;1.20;99.90;;;;;;4944038;28;20101;-70
2021/04/09 01:09:40;;;;;;;14.23;7.30;;;1.20;99.90;;;;;;4948455;28;20165;-70
2021/04/09 01:12:08;;;;;;;17.40;7.70;;;1.10;99.90;;;;;;4950249;28;20081;-70
2021/04/09 01:14:36;;;;;;;13.13;7.17;;;1.00;99.90;;;;;;4949963;28;20050;-70
2021/04/09 01:17:12;;;;;;;14.60;7.13;;;1.00;99.90;;;;;;4949771;28;20047;-70
2021/04/09 01:20:14;;;;;;;22.67;8.48;;;0.90;99.90;;;;;;4951864;28;20141;-70
2021/04/09 01:22:45;;;;;;;19.83;7.50;;;0.90;99.90;;;;;;4935422;28;20050;-70
2021/04/09 01:25:44;;;;;;;18.23;7.77;;;1.00;99.90;;;;;;4954395;28;20085;-71
2021/04/09 01:28:15;;;;;;;18.00;7.77;;;0.90;99.90;;;;;;4928259;28;20047;-70
2021/04/09 01:30:54;;;;;;;18.60;8.10;;;0.90;99.90;;;;;;4952570;28;20058;-70
2021/04/09 01:33:25;;;;;;;17.40;7.50;;;0.80;99.90;;;;;;4951903;28;20632;-70
2021/04/09 01:35:57;;;;;;;18.67;7.43;;;0.90;99.90;;;;;;4949176;28;20121;-70
2021/04/09 01:38:27;;;;;;;18.33;7.67;;;0.80;99.90;;;;;;4949599;28;20092;-70
2021/04/09 01:40:57;;;;;;;20.87;7.37;;;0.90;99.90;;;;;;4951831;28;20054;-70
2021/04/09 01:43:25;;;;;;;16.57;8.23;;;0.90;99.90;;;;;;4951997;28;20126;-70
2021/04/09 01:45:52;;;;;;;18.37;7.77;;;0.90;99.90;;;;;;4949974;28;20058;-70
2021/04/09 01:48:21;;;;;;;18.87;6.90;;;0.90;99.90;;;;;;4950557;28;20054;-70
2021/04/09 01:50:48;;;;;;;14.30;7.47;;;0.90;99.90;;;;;;4949373;28;20462;-70
2021/04/09 01:53:17;;;;;;;16.73;8.03;;;0.90;99.90;;;;;;4948092;28;20058;-70
2021/04/09 01:55:48;;;;;;;14.07;7.03;;;0.90;99.90;;;;;;4949994;28;20090;-70
2021/04/09 01:58:16;;;;;;;16.93;8.10;;;0.80;99.90;;;;;;4948716;28;20046;-70
2021/04/09 02:00:43;;;;;;;16.97;7.70;;;0.80;99.90;;;;;;4947966;28;20057;-70
2021/04/09 02:03:11;;;;;;;19.13;7.20;;;0.80;99.90;;;;;;4949898;28;20050;-70
2021/04/09 02:05:39;;;;;;;16.50;7.57;;;0.70;99.90;;;;;;4949613;28;20051;-70
2021/04/09 02:08:10;;;;;;;16.07;7.37;;;0.70;99.90;;;;;;4949178;28;20142;-70
2021/04/09 02:10:37;;;;;;;16.57;7.47;;;0.70;99.90;;;;;;4948902;28;20050;-70
2021/04/09 02:13:04;;;;;;;18.10;8.07;;;0.70;99.90;;;;;;4949347;28;20057;-70
2021/04/09 02:15:31;;;;;;;16.97;8.53;;;0.70;99.90;;;;;;4951214;28;20561;-70
2021/04/09 02:17:58;;;;;;;17.23;8.00;;;0.70;99.90;;;;;;4948498;28;20101;-70
2021/04/09 02:20:24;;;;;;;22.93;7.93;;;0.60;99.90;;;;;;4947758;28;20057;-70
2021/04/09 02:22:53;;;;;;;18.43;8.00;;;0.60;99.90;;;;;;4946797;28;20503;-70
2021/04/09 02:25:21;;;;;;;17.53;7.57;;;0.60;99.90;;;;;;4949254;28;20056;-70
2021/04/09 02:27:48;;;;;;;16.13;7.30;;;0.60;99.90;;;;;;4948068;28;20054;-70
2021/04/09 02:30:18;;;;;;;17.67;7.50;;;0.60;99.90;;;;;;4949029;28;20478;-70
2021/04/09 02:32:45;;;;;;;15.50;7.47;;;0.50;99.90;;;;;;4947039;28;20092;-70
2021/04/09 02:35:14;;;;;;;15.30;7.57;;;0.50;99.90;;;;;;4949621;28;20553;-70
2021/04/09 02:37:42;;;;;;;16.20;7.23;;;0.50;99.90;;;;;;4948405;28;20100;-70
2021/04/09 02:40:15;;;;;;;18.03;7.20;;;0.50;99.90;;;;;;4948473;28;20117;-70
2021/04/09 02:42:45;;;;;;;16.97;8.57;;;0.60;99.90;;;;;;4948782;28;20063;-70
2021/04/09 02:45:13;;;;;;;20.57;7.20;;;0.50;99.90;;;;;;4946920;28;20092;-70
2021/04/09 02:47:42;;;;;;;14.37;7.43;;;0.50;99.90;;;;;;4946319;28;20754;-70
2021/04/09 02:50:13;;;;;;;16.57;7.40;;;0.50;99.90;;;;;;4951761;28;20086;-70
2021/04/09 02:52:46;;;;;;;15.43;7.80;;;0.50;99.90;;;;;;4948618;28;20050;-70
2021/04/09 02:55:17;;;;;;;15.07;7.53;;;0.50;99.90;;;;;;4950156;28;20100;-70
2021/04/09 02:57:46;;;;;;;14.53;7.33;;;0.50;99.90;;;;;;4947910;28;20105;-70
2021/04/09 03:00:13;;;;;;;15.07;6.93;;;0.50;99.90;;;;;;4948353;28;20099;-70
2021/04/09 03:02:40;;;;;;;17.73;7.40;;;0.50;99.90;;;;;;4949347;28;20051;-70
2021/04/09 03:05:09;;;;;;;15.30;8.00;;;0.50;99.90;;;;;;4949115;28;20120;-70
2021/04/09 03:07:39;;;;;;;14.70;7.67;;;0.50;99.90;;;;;;4948450;28;20096;-70
2021/04/09 03:10:08;;;;;;;12.33;6.60;;;0.60;99.90;;;;;;4950846;28;20043;-70
2021/04/09 03:12:35;;;;;;;17.57;6.87;;;0.60;99.90;;;;;;4949537;28;20058;-70
2021/04/09 03:15:04;;;;;;;15.63;6.83;;;0.60;99.90;;;;;;4949841;28;20074;-70
2021/04/09 03:17:37;;;;;;;18.33;7.10;;;0.60;99.90;;;;;;4946549;28;20046;-70
2021/04/09 03:20:04;;;;;;;16.07;6.90;;;0.60;99.90;;;;;;4950671;28;20442;-70
2021/04/09 03:22:31;;;;;;;17.50;7.53;;;0.70;99.90;;;;;;4949209;28;20047;-70
2021/04/09 03:24:58;;;;;;;14.93;7.97;;;0.70;99.90;;;;;;4946901;28;20050;-70
2021/04/09 03:27:24;;;;;;;16.83;7.63;;;0.70;99.90;;;;;;4947325;28;20046;-70
2021/04/09 03:29:52;;;;;;;17.57;7.67;;;0.70;99.90;;;;;;4948749;28;20056;-70
2021/04/09 03:32:18;;;;;;;16.53;7.60;;;0.60;99.90;;;;;;4951484;28;20090;-70
2021/04/09 03:34:46;;;;;;;20.97;7.47;;;0.60;99.90;;;;;;4947822;28;20455;-70
2021/04/09 03:37:12;;;;;;;15.57;7.67;;;0.60;99.90;;;;;;4947223;28;20054;-70
2021/04/09 03:39:39;;;;;;;17.17;8.03;;;0.60;99.90;;;;;;4947834;28;20046;-70
2021/04/09 03:42:06;;;;;;;19.83;8.27;;;0.60;99.90;;;;;;4949296;28;20047;-70
2021/04/09 03:44:33;;;;;;;21.33;8.70;;;0.60;99.90;;;;;;4948217;28;20050;-70
2021/04/09 03:47:00;;;;;;;19.77;9.77;;;0.60;99.90;;;;;;4947400;28;20524;-70
2021/04/09 03:49:27;;;;;;;19.10;8.77;;;0.50;99.90;;;;;;4948716;28;20057;-70
2021/04/09 03:51:54;;;;;;;16.07;8.03;;;0.50;99.90;;;;;;4947661;28;20054;-70
2021/04/09 03:54:21;;;;;;;17.47;8.70;;;0.50;99.90;;;;;;4948822;28;20054;-70
2021/04/09 03:56:47;;;;;;;18.37;8.30;;;0.40;99.90;;;;;;4950373;28;20054;-70
2021/04/09 03:59:14;;;;;;;15.33;7.50;;;0.40;99.90;;;;;;4946269;28;20078;-70
2021/04/09 04:01:40;;;;;;;16.60;9.00;;;0.40;99.90;;;;;;4947439;28;20046;-70
2021/04/09 04:04:08;;;;;;;19.10;8.70;;;0.30;99.90;;;;;;4950216;28;20054;-70
2021/04/09 04:06:34;;;;;;;18.97;8.90;;;0.30;99.90;;;;;;4946474;28;20081;-70
2021/04/09 04:09:01;;;;;;;13.30;7.27;;;0.30;99.90;;;;;;4947320;28;20057;-70
2021/04/09 04:11:29;;;;;;;16.77;8.77;;;0.40;99.90;;;;;;4948077;28;20402;-70
2021/04/09 04:13:55;;;;;;;17.80;8.63;;;0.40;99.90;;;;;;4948076;28;20372;-70
2021/04/09 04:16:22;;;;;;;18.30;8.77;;;0.40;99.90;;;;;;4950014;28;20250;-70
2021/04/09 04:18:49;;;;;;;15.47;7.37;;;0.30;99.90;;;;;;4949388;28;20050;-70
2021/04/09 04:21:17;;;;;;;16.60;7.60;;;0.40;99.90;;;;;;4949137;28;20053;-70
2021/04/09 04:23:43;;;;;;;19.20;8.73;;;0.30;99.90;;;;;;4947137;28;20500;-70
2021/04/09 04:26:10;;;;;;;16.23;7.93;;;0.30;99.90;;;;;;4946969;28;20054;-70
2021/04/09 04:28:36;;;;;;;18.63;8.47;;;0.30;99.90;;;;;;4947516;28;20194;-70
2021/04/09 04:31:04;;;;;;;16.83;8.10;;;0.30;99.90;;;;;;4948323;28;20046;-70
2021/04/09 04:33:31;;;;;;;21.33;8.50;;;0.30;99.90;;;;;;4949104;28;20081;-70
2021/04/09 04:35:57;;;;;;;18.27;8.03;;;0.30;99.90;;;;;;4950410;28;20535;-71
2021/04/09 04:38:25;;;;;;;19.80;8.17;;;0.30;99.90;;;;;;4947254;28;20047;-70
2021/04/09 04:40:52;;;;;;;19.17;9.30;;;0.30;99.90;;;;;;4950502;28;21679;-70
2021/04/09 04:43:19;;;;;;;16.23;8.30;;;0.30;99.90;;;;;;4956086;28;20050;-70
2021/04/09 04:45:45;;;;;;;15.27;8.67;;;0.30;99.90;;;;;;4957483;28;20067;-70
2021/04/09 04:48:12;;;;;;;18.73;8.00;;;0.40;99.90;;;;;;4953424;28;20652;-70
2021/04/09 04:50:39;;;;;;;18.60;9.10;;;0.40;99.90;;;;;;4951529;28;20050;-70
2021/04/09 04:53:05;;;;;;;20.33;9.17;;;0.40;99.90;;;;;;4953660;28;20112;-70
2021/04/09 04:55:33;;;;;;;18.73;8.77;;;0.40;99.90;;;;;;4952578;28;20182;-70
2021/04/09 04:57:59;;;;;;;16.73;8.47;;;0.40;99.90;;;;;;4952714;28;20050;-70
2021/04/09 05:00:27;;;;;;;17.37;8.87;;;0.40;99.90;;;;;;4951351;28;20459;-70
2021/04/09 05:02:53;;;;;;;16.93;8.60;;;0.40;99.90;;;;;;4950204;28;20598;-70
2021/04/09 05:05:20;;;;;;;15.83;8.73;;;0.40;99.90;;;;;;4952309;28;20057;-70
2021/04/09 05:07:47;;;;;;;21.13;10.70;;;0.50;99.90;;;;;;4952049;28;20051;-70
2021/04/09 05:10:14;;;;;;;19.73;9.73;;;0.50;99.90;;;;;;4952425;28;20156;-70
2021/04/09 05:12:41;;;;;;;20.00;9.00;;;0.50;99.90;;;;;;4951763;28;20134;-70
2021/04/09 05:15:09;;;;;;;17.17;8.57;;;0.60;99.90;;;;;;4954252;28;20053;-70
2021/04/09 05:17:36;;;;;;;19.67;9.60;;;0.70;99.90;;;;;;4947222;28;20061;-70
2021/04/09 05:20:04;;;;;;;21.60;10.37;;;0.80;99.90;;;;;;4951858;28;20050;-71
2021/04/09 05:22:30;;;;;;;22.37;9.77;;;0.90;99.90;;;;;;4951183;28;20049;-70
2021/04/09 05:24:57;;;;;;;18.60;8.77;;;0.90;99.90;;;;;;4950133;28;20052;-70
2021/04/09 05:27:24;;;;;;;17.03;9.40;;;1.00;99.90;;;;;;4952639;28;20494;-70
2021/04/09 05:29:51;;;;;;;19.63;10.00;;;1.00;99.90;;;;;;4951079;28;20104;-71
2021/04/09 05:32:18;;;;;;;19.83;9.70;;;1.10;99.90;;;;;;4949484;28;20047;-72
2021/04/09 05:34:45;;;;;;;20.87;10.07;;;1.10;99.90;;;;;;4944034;28;20138;-70
2021/04/09 05:37:11;;;;;;;17.53;9.40;;;1.20;99.90;;;;;;4949328;28;20050;-70
2021/04/09 05:39:38;;;;;;;20.70;9.77;;;1.40;99.90;;;;;;4950982;28;20137;-71
2021/04/09 05:42:05;;;;;;;21.70;8.97;;;1.50;99.90;;;;;;4949980;28;20105;-71
2021/04/09 05:44:34;;;;;;;23.40;9.70;;;1.70;99.90;;;;;;4955147;28;20062;-71
2021/04/09 05:47:02;;;;;;;18.63;9.93;;;1.80;99.90;;;;;;4953880;28;20776;-70
2021/04/09 05:49:29;;;;;;;21.80;9.87;;;1.80;99.90;;;;;;4956995;28;20046;-71
2021/04/09 05:51:56;;;;;;;19.30;9.03;;;2.00;99.90;;;;;;4955289;28;20057;-71
2021/04/09 05:54:23;;;;;;;22.93;11.10;;;2.00;99.90;;;;;;4954196;28;20065;-71
2021/04/09 05:56:49;;;;;;;18.00;9.53;;;2.10;99.90;;;;;;4953043;28;20219;-71
2021/04/09 05:59:17;;;;;;;17.00;8.70;;;2.30;99.90;;;;;;4955920;28;20047;-71
2021/04/09 06:01:46;;;;;;;19.07;9.67;;;2.30;99.90;;;;;;4958950;28;20125;-72
2021/04/09 06:04:13;;;;;;;17.90;8.93;;;2.40;99.90;;;;;;4961530;28;20051;-71
2021/04/09 06:06:40;;;;;;;17.27;8.90;;;2.40;99.90;;;;;;4958795;28;20054;-71
2021/04/09 06:09:07;;;;;;;15.63;8.37;;;2.50;99.90;;;;;;4951789;28;20122;-70
2021/04/09 06:11:34;;;;;;;20.83;9.60;;;2.60;99.90;;;;;;4958617;28;20050;-70
2021/04/09 06:14:00;;;;;;;19.90;10.03;;;2.70;99.90;;;;;;4961431;28;20450;-70
2021/04/09 06:16:27;;;;;;;23.60;9.03;;;2.80;99.90;;;;;;4963333;28;20098;-70
2021/04/09 06:18:54;;;;;;;19.57;9.10;;;3.00;99.90;;;;;;4961977;28;20129;-71
2021/04/09 06:21:21;;;;;;;20.57;9.07;;;3.00;99.90;;;;;;4961602;28;20475;-71
2021/04/09 06:23:48;;;;;;;21.63;10.00;;;3.10;99.90;;;;;;4961903;28;20054;-71
2021/04/09 06:26:14;;;;;;;16.63;8.63;;;3.30;99.90;;;;;;4962364;28;20078;-70
2021/04/09 06:28:41;;;;;;;18.10;9.20;;;3.20;99.90;;;;;;4961895;28;20054;-71
2021/04/09 06:31:07;;;;;;;21.57;10.17;;;3.20;99.90;;;;;;4961114;28;20184;-71
2021/04/09 06:33:35;;;;;;;17.47;8.50;;;3.30;99.90;;;;;;4962556;28;20054;-71
2021/04/09 06:36:02;;;;;;;16.37;9.57;;;3.40;99.90;;;;;;4960406;28;20427;-71
2021/04/09 06:38:29;;;;;;;16.50;8.80;;;3.50;99.90;;;;;;4961522;28;20054;-71
2021/04/09 06:40:56;;;;;;;16.33;9.63;;;3.60;99.90;;;;;;4959286;28;21087;-71
2021/04/09 06:43:24;;;;;;;20.53;9.70;;;3.60;99.90;;;;;;4961290;28;20521;-71
2021/04/09 06:45:53;;;;;;;19.53;9.80;;;3.70;99.90;;;;;;4958259;28;20065;-68
2021/04/09 06:48:19;;;;;;;17.27;8.67;;;3.80;99.90;;;;;;4949913;28;20081;-67
2021/04/09 06:50:46;;;;;;;16.87;8.90;;;4.00;99.90;;;;;;4953740;28;20101;-69
2021/04/09 06:53:13;;;;;;;16.33;8.57;;;4.10;99.90;;;;;;4952583;28;20049;-67
2021/04/09 06:55:42;;;;;;;14.83;7.83;;;4.20;99.90;;;;;;4949779;28;20108;-71
2021/04/09 06:58:13;;;;;;;19.97;8.70;;;4.20;99.90;;;;;;4951866;28;20057;-73
2021/04/09 07:00:43;;;;;;;18.87;8.53;;;4.20;99.90;;;;;;4953834;28;20507;-71
2021/04/09 07:03:10;;;;;;;17.80;9.07;;;4.30;99.90;;;;;;4961197;28;20081;-70
2021/04/09 07:05:37;;;;;;;17.57;8.10;;;4.30;99.90;;;;;;4959739;28;20054;-70
2021/04/09 07:08:04;;;;;;;14.53;8.43;;;4.50;99.90;;;;;;4956425;28;20058;-70
2021/04/09 07:10:31;;;;;;;13.97;8.17;;;4.50;99.90;;;;;;4961448;28;20277;-71
2021/04/09 07:13:06;;;;;;;16.13;8.53;;;4.70;99.90;;;;;;4960443;28;20051;-71
2021/04/09 07:15:37;;;;;;;15.13;8.27;;;4.90;99.90;;;;;;4958328;28;20381;-71
2021/04/09 07:18:06;;;;;;;19.60;8.93;;;4.90;99.90;;;;;;4959909;28;20049;-70
2021/04/09 07:20:34;;;;;;;13.83;8.37;;;5.00;99.90;;;;;;4959751;28;20058;-72
2021/04/09 07:23:02;;;;;;;15.70;8.03;;;5.10;99.90;;;;;;4957023;28;20249;-72
2021/04/09 07:25:30;;;;;;;14.17;7.90;;;5.10;99.90;;;;;;4958003;28;20411;-72
2021/04/09 07:28:14;;;;;;;14.03;8.43;;;5.20;99.90;;;;;;4958847;28;20050;-71
2021/04/09 07:30:42;;;;;;;14.60;7.07;;;5.30;99.90;;;;;;4957499;28;20059;-72
2021/04/09 07:33:10;;;;;;;12.87;7.23;;;5.30;99.90;;;;;;4959509;28;20055;-70
2021/04/09 07:35:52;;;;;;;14.50;7.80;;;5.30;99.90;;;;;;4957095;28;20376;-71
2021/04/09 07:38:24;;;;;;;14.97;7.13;;;5.40;99.90;;;;;;4959213;28;20493;-71
2021/04/09 07:40:53;;;;;;;16.50;7.47;;;5.50;99.90;;;;;;4956335;28;20058;-71
2021/04/09 07:43:21;;;;;;;15.30;7.77;;;5.50;99.90;;;;;;4958052;28;20213;-72
2021/04/09 07:45:48;;;;;;;15.97;7.87;;;5.60;99.90;;;;;;4958678;28;20058;-72
2021/04/09 07:48:18;;;;;;;14.30;6.73;;;5.70;99.90;;;;;;4956083;28;20511;-71
2021/04/09 07:50:47;;;;;;;14.90;7.47;;;5.80;99.90;;;;;;4957600;28;20053;-71
2021/04/09 07:53:17;;;;;;;11.90;6.53;;;5.90;99.90;;;;;;4961007;28;20057;-73
2021/04/09 07:55:44;;;;;;;13.67;7.30;;;6.10;99.90;;;;;;4958321;28;20121;-71
2021/04/09 07:58:20;;;;;;;16.03;7.07;;;6.10;99.90;;;;;;4958307;28;20054;-73
2021/04/09 08:00:48;;;;;;;14.83;7.57;;;6.10;99.90;;;;;;4957729;28;20058;-73
2021/04/09 08:03:30;;;;;;;14.17;7.20;;;6.20;99.90;;;;;;4958909;28;20054;-71
2021/04/09 08:06:13;;;;;;;17.87;7.43;;;6.30;99.90;;;;;;4957051;28;20138;-71
2021/04/09 08:08:56;;;;;;;11.70;6.93;;;6.50;99.90;;;;;;4956634;28;20057;-71
2021/04/09 08:11:29;;;;;;;12.97;7.43;;;6.70;99.90;;;;;;4959701;28;20046;-71
2021/04/09 08:14:05;;;;;;;17.33;7.03;;;6.80;99.90;;;;;;4957531;28;20196;-71
2021/04/09 08:16:37;;;;;;;17.37;7.60;;;7.10;99.90;;;;;;4957248;28;20105;-71
2021/04/09 08:19:06;;;;;;;12.17;7.23;;;7.30;99.90;;;;;;4956102;28;20054;-73
2021/04/09 08:21:35;;;;;;;14.77;7.80;;;7.60;99.90;;;;;;4955335;28;20055;-71
2021/04/09 08:24:03;;;;;;;11.85;6.97;;;7.50;99.90;;;;;;4956808;28;20852;-73
2021/04/09 08:26:30;;;;;;;12.85;7.10;;;7.90;99.90;;;;;;4957885;28;20142;-73
2021/04/09 08:28:57;;;;;;;19.17;8.02;;;8.30;99.90;;;;;;4961426;28;20130;-72
2021/04/09 08:31:25;;;;;;;13.00;6.72;;;8.30;99.90;;;;;;4963515;28;20486;-72
2021/04/09 08:33:53;;;;;;;14.88;7.00;;;8.90;99.90;;;;;;4956664;28;20061;-71
2021/04/09 08:36:19;;;;;;;14.88;7.28;;;9.70;99.90;;;;;;4957370;28;20054;-72
2021/04/09 08:38:46;;;;;;;14.43;7.47;;;9.90;99.90;;;;;;4955871;28;20054;-72
2021/04/09 08:41:14;;;;;;;15.57;6.38;;;10.50;99.90;;;;;;4957077;28;20043;-72
2021/04/09 08:43:41;;;;;;;14.20;6.97;;;11.00;99.90;;;;;;4956451;28;20531;-73
2021/04/09 08:46:08;;;;;;;12.82;6.68;;;11.80;99.90;;;;;;4954298;28;20050;-69
2021/04/09 08:48:38;;;;;;;13.93;6.70;;;12.40;99.90;;;;;;4947506;28;20471;-70
2021/04/09 08:51:05;;;;;;;13.40;7.60;;;12.90;99.90;;;;;;4949215;28;20158;-71
2021/04/09 08:53:33;;;;;;;13.02;7.03;;;12.50;99.30;;;;;;4949002;28;20109;-72
2021/04/09 08:56:00;;;;;;;11.77;6.90;;;12.90;97.60;;;;;;4948444;28;20054;-69
2021/04/09 08:58:30;;;;;;;10.50;6.53;;;13.20;96.00;;;;;;4941934;28;20055;-69
2021/04/09 09:01:09;;;;;;;14.90;7.55;;;13.70;95.40;;;;;;4945889;28;20725;-70
2021/04/09 09:03:36;;;;;;;12.82;7.70;;;13.90;93.60;;;;;;4947073;28;20157;-72
2021/04/09 09:06:04;;;;;;;13.38;6.78;;;14.40;92.10;;;;;;4947766;28;20503;-71
2021/04/09 09:09:01;;;;;;;10.45;7.13;;;14.30;91.00;;;;;;4950348;28;20047;-73
2021/04/09 09:11:53;;;;;;;15.55;6.93;;;14.10;90.90;;;;;;4953110;28;20051;-72
2021/04/09 09:14:40;;;;;;;15.68;7.25;;;13.70;90.70;;;;;;4946413;28;20074;-71
2021/04/09 09:17:41;;;;;;;12.95;6.63;;;13.70;90.60;;;;;;4946121;28;20078;-73
2021/04/09 09:20:16;;;;;;;11.60;6.55;;;13.80;90.10;;;;;;4950789;28;20201;-70
2021/04/09 09:22:54;;;;;;;13.25;7.15;;;14.60;88.30;;;;;;4948984;28;20059;-70
2021/04/09 09:25:34;;;;;;;11.52;7.57;;;14.70;86.00;;;;;;4948729;28;20081;-71
2021/04/09 09:28:01;;;;;;;14.23;7.65;;;14.20;86.90;;;;;;4950239;28;20054;-70
2021/04/09 09:30:35;;;;;;;10.52;6.45;;;14.90;84.90;;;;;;4952086;28;20086;-70
2021/04/09 09:33:22;;;;;;;11.77;6.18;;;15.20;81.90;;;;;;4956677;28;20539;-70
2021/04/09 09:36:09;;;;;;;12.25;6.45;;;15.10;79.50;;;;;;4949367;28;20113;-70
2021/04/09 09:38:53;;;;;;;13.48;7.22;;;15.50;77.50;;;;;;4950194;28;20113;-72
2021/04/09 09:41:37;;;;;;;13.48;6.70;;;16.10;77.40;;;;;;4952565;28;20507;-70
2021/04/09 09:44:28;;;;;;;12.23;7.43;;;16.00;75.40;;;;;;4952607;28;20486;-68
2021/04/09 09:46:56;;;;;;;13.63;7.15;;;15.90;74.20;;;;;;4953082;28;20101;-71
2021/04/09 09:49:24;;;;;;;9.43;6.15;;;16.30;73.80;;;;;;4954751;28;20053;-70
2021/04/09 09:51:51;;;;;;;12.95;7.15;;;15.90;71.20;;;;;;4953710;28;20054;-70
2021/04/09 09:54:26;;;;;;;11.30;6.80;;;16.00;72.30;;;;;;4953464;28;20049;-70
2021/04/09 09:56:53;;;;;;;11.55;6.78;;;15.20;73.70;;;;;;4952543;28;20054;-69
2021/04/09 09:59:21;;;;;;;11.15;6.60;;;15.40;75.00;;;;;;4953134;28;20485;-70
2021/04/09 10:01:53;;;;;;;10.30;6.65;;;15.60;74.50;;;;;;4951737;28;20137;-71
2021/04/09 10:04:20;;;;;;;14.63;7.22;;;15.10;73.10;;;;;;4952381;28;20085;-69
2021/04/09 10:06:51;;;;;;;11.48;5.97;;;15.60;73.50;;;;;;4951342;28;20051;-71
2021/04/09 10:09:32;;;;;;;11.30;6.30;;;15.40;70.30;;;;;;4949857;28;20063;-72
2021/04/09 10:11:59;;;;;;;10.65;6.03;;;14.70;70.10;;;;;;4954686;28;20495;-70
2021/04/09 10:14:28;;;;;;;13.13;6.05;;;14.10;71.10;;;;;;4960952;28;20049;-71
2021/04/09 10:16:56;;;;;;;10.70;6.43;;;13.80;70.40;;;;;;4960004;28;20150;-72
2021/04/09 10:19:22;;;;;;;9.70;5.65;;;13.40;71.60;;;;;;4962770;28;20061;-68
2021/04/09 10:21:49;;;;;;;12.63;6.07;;;13.10;71.80;;;;;;4959619;28;20135;-71
2021/04/09 10:24:17;;;;;;;17.02;6.32;;;13.00;72.40;;;;;;4961319;28;20067;-69
2021/04/09 10:26:51;;;;;;;12.63;5.88;;;12.90;72.70;;;;;;4961009;28;20089;-71
2021/04/09 10:29:26;;;;;;;12.25;6.32;;;12.90;73.80;;;;;;4954083;28;20054;-71
2021/04/09 10:31:53;;;;;;;12.60;6.85;;;13.00;74.40;;;;;;4950709;28;20082;-72
2021/04/09 10:34:21;;;;;;;14.40;6.80;;;13.30;75.10;;;;;;4950076;28;21474;-72
2021/04/09 10:36:47;;;;;;;12.40;6.90;;;13.60;74.30;;;;;;4953395;28;20061;-74
2021/04/09 10:39:16;;;;;;;11.88;7.13;;;13.50;73.50;;;;;;4949244;28;20054;-73
2021/04/09 10:41:46;;;;;;;10.65;6.25;;;13.60;73.20;;;;;;4955201;28;20890;-73
2021/04/09 10:44:17;;;;;;;11.32;6.30;;;14.10;71.70;;;;;;4955590;28;20113;-73
2021/04/09 10:46:45;;;;;;;11.63;6.30;;;14.00;74.60;;;;;;4958678;28;20093;-73
2021/04/09 10:49:13;;;;;;;14.55;6.03;;;14.20;73.00;;;;;;4959371;28;20565;-73
2021/04/09 10:51:41;;;;;;;12.93;6.32;;;14.30;72.90;;;;;;4959228;28;20153;-73
2021/04/09 10:54:09;;;;;;;12.40;6.50;;;14.30;71.40;;;;;;4957658;28;20117;-73
2021/04/09 10:56:35;;;;;;;11.82;6.25;;;14.60;71.30;;;;;;4957574;28;20050;-74
2021/04/09 10:59:07;;;;;;;10.85;6.65;;;15.30;71.40;;;;;;4956874;28;20182;-74
2021/04/09 11:01:35;;;;;;;11.48;6.13;;;16.20;69.50;;;;;;4957582;28;20137;-74
2021/04/09 11:04:02;;;;;;;11.38;6.25;;;16.10;66.40;;;;;;4960600;28;20058;-75
2021/04/09 11:06:29;;;;;;;13.65;6.85;;;15.90;67.30;;;;;;4957866;28;20054;-74
2021/04/09 11:08:58;;;;;;;10.48;5.90;;;16.80;67.30;;;;;;4958252;28;20058;-74
2021/04/09 11:11:30;;;;;;;11.95;6.80;;;16.80;65.80;;;;;;4959264;28;20057;-75
2021/04/09 11:14:03;;;;;;;10.82;6.18;;;17.60;65.40;;;;;;4955909;28;20121;-75
2021/04/09 11:16:45;;;;;;;13.70;6.22;;;18.20;64.00;;;;;;4956008;28;20055;-75
2021/04/09 11:19:22;;;;;;;11.38;6.25;;;18.20;63.00;;;;;;4955454;28;20664;-74
2021/04/09 11:21:50;;;;;;;14.98;6.75;;;17.90;61.40;;;;;;4954439;28;20061;-74
2021/04/09 11:24:21;;;;;;;14.88;6.45;;;17.00;61.70;;;;;;4952781;28;20618;-75
2021/04/09 11:26:48;;;;;;;12.43;6.45;;;17.50;64.50;;;;;;4951339;28;20102;-75
2021/04/09 11:29:25;;;;;;;10.23;5.47;;;17.50;61.60;;;;;;4952074;28;20055;-75
2021/04/09 11:32:05;;;;;;;12.10;5.97;;;17.70;60.70;;;;;;4958043;28;20419;-75
2021/04/09 11:34:35;;;;;;;9.85;5.57;;;17.50;59.10;;;;;;4955702;28;20088;-75
2021/04/09 11:37:02;;;;;;;9.75;5.60;;;17.70;59.30;;;;;;4960662;28;20131;-75
2021/04/09 11:39:28;;;;;;;12.15;6.22;;;16.80;59.10;;;;;;4963787;28;20121;-76
2021/04/09 11:41:57;;;;;;;10.50;6.20;;;16.90;60.60;;;;;;4956253;28;20088;-76
2021/04/09 11:44:30;;;;;;;11.05;5.47;;;16.70;58.60;;;;;;4955042;28;20542;-76
2021/04/09 11:47:12;;;;;;;13.70;5.45;;;16.50;58.30;;;;;;4953509;28;20689;-76
2021/04/09 11:49:39;;;;;;;9.95;5.90;;;16.40;59.20;;;;;;4956836;28;20050;-76
2021/04/09 11:52:06;;;;;;;12.45;6.15;;;16.70;59.10;;;;;;4954915;28;20141;-77
2021/04/09 11:54:34;;;;;;;10.38;5.70;;;16.80;59.50;;;;;;4957027;28;20054;-76
2021/04/09 11:57:01;;;;;;;15.13;6.60;;;16.70;59.10;;;;;;4955602;28;20062;-76
2021/04/09 11:59:33;;;;;;;11.32;5.72;;;16.90;59.30;;;;;;4961630;28;20440;-76
2021/04/09 12:02:16;;;;;;;12.00;5.93;;;17.00;59.70;;;;;;4961458;28;20050;-76
2021/04/09 12:04:42;;;;;;;13.07;5.60;;;16.80;58.20;;;;;;4955537;28;20153;-76
2021/04/09 12:07:12;;;;;;;11.18;5.55;;;17.10;58.60;;;;;;4961310;28;20082;-79
2021/04/09 12:09:39;;;;;;;10.35;5.57;;;17.40;58.10;;;;;;4957845;28;20464;-76
2021/04/09 12:12:07;;;;;;;9.27;4.90;;;17.10;56.90;;;;;;4960670;28;20042;-75
2021/04/09 12:14:37;;;;;;;15.38;5.68;;;17.30;57.10;;;;;;4961953;28;20055;-76
2021/04/09 12:17:04;;;;;;;10.63;5.82;;;17.90;57.60;;;;;;4957546;28;20046;-76
2021/04/09 12:19:31;;;;;;;9.10;5.20;;;18.40;56.60;;;;;;4960099;28;20593;-80
2021/04/09 12:21:58;;;;;;;9.65;4.50;;;19.00;57.30;;;;;;4958608;28;20193;-77
2021/04/09 12:24:24;;;;;;;8.48;4.55;;;19.50;54.10;;;;;;4968212;28;20043;-77
2021/04/09 12:26:51;;;;;;;8.30;4.45;;;18.20;51.80;;;;;;4976082;28;20534;-77
2021/04/09 12:29:17;;;;;;;9.98;4.38;;;18.70;52.10;;;;;;4970712;28;20162;-78
2021/04/09 12:31:45;;;;;;;12.18;4.90;;;19.30;52.90;;;;;;4966597;28;20136;-77
2021/04/09 12:34:12;;;;;;;8.75;4.53;;;19.00;51.10;;;;;;4972782;28;20044;-78
2021/04/09 12:36:39;;;;;;;7.18;4.38;;;18.30;50.40;;;;;;4979980;28;20054;-78
2021/04/09 12:39:07;;;;;;;7.60;4.05;;;18.50;50.70;;;;;;4975039;28;20046;-78
2021/04/09 12:41:34;;;;;;;7.32;4.10;;;18.70;51.10;;;;;;4978811;28;20054;-77
2021/04/09 12:44:00;;;;;;;10.57;4.78;;;18.70;51.00;;;;;;4979688;28;20101;-77
2021/04/09 12:46:28;;;;;;;9.30;4.40;;;18.80;51.10;;;;;;4960815;28;20082;-77
2021/04/09 12:48:55;;;;;;;7.75;3.92;;;18.80;50.40;;;;;;4958314;28;20197;-77
2021/04/09 12:51:22;;;;;;;8.35;4.10;;;18.60;51.40;;;;;;4958353;28;20137;-77
2021/04/09 12:53:49;;;;;;;7.72;3.85;;;17.80;51.70;;;;;;4957558;28;21015;-77